Time;durP1;ratioP1;P1;durP2;ratioP2;P2;SDS_P1;SDS_P2;PMS_P1;PMS_P2;Temp;Humidity;BMP_temperature;BMP_pressure;BME280_temperature;BME280_humidity;BME280_pressure;Samples;Min_cycle;Max_cycle;Signal;HPM_P1;HPM_P2
2022/08/22 00:02:16;;;;;;;10.07;7.93;;;;;;;;;;5021464;28;20058;-83
2022/08/22 00:05:01;;;;;;;12.20;8.38;;;;;;;;;;5003231;28;20025;-82
2022/08/22 00:07:36;;;;;;;11.02;8.02;;;;;;;;;;5021054;28;20052;-83
2022/08/22 00:10:18;;;;;;;10.30;8.07;;;;;;;;;;5018596;28;20030;-83
2022/08/22 00:12:47;;;;;;;11.38;8.02;;;;;;;;;;4999760;28;20022;-81
2022/08/22 00:15:19;;;;;;;10.65;7.93;;;;;;;;;;5004068;28;20032;-82
2022/08/22 00:18:04;;;;;;;12.02;8.07;;;;;;;;;;5018083;28;20036;-83
2022/08/22 00:20:40;;;;;;;10.38;7.30;;;;;;;;;;5014937;28;20473;-81
2022/08/22 00:23:11;;;;;;;9.75;6.97;;;;;;;;;;5017774;28;20014;-82
2022/08/22 00:25:37;;;;;;;12.95;7.97;;;;;;;;;;5015933;28;20036;-81
2022/08/22 00:28:03;;;;;;;10.90;7.38;;;;;;;;;;5014315;28;20030;-81
2022/08/22 00:30:34;;;;;;;9.18;6.88;;;;;;;;;;4986019;28;20528;-81
2022/08/22 00:33:03;;;;;;;9.77;6.90;;;;;;;;;;4993674;28;20038;-81
2022/08/22 00:35:38;;;;;;;11.07;7.47;;;;;;;;;;4995360;28;20366;-81
2022/08/22 00:38:10;;;;;;;12.25;6.75;;;;;;;;;;4997898;28;20490;-83
2022/08/22 00:40:55;;;;;;;11.35;7.78;;;;;;;;;;4997840;28;20034;-81
2022/08/22 00:43:27;;;;;;;11.35;6.95;;;;;;;;;;5000160;28;20052;-82
2022/08/22 00:45:53;;;;;;;9.77;6.93;;;;;;;;;;4999211;28;20482;-82
2022/08/22 00:48:19;;;;;;;10.13;7.22;;;;;;;;;;4996603;28;20030;-81
2022/08/22 00:51:04;;;;;;;9.82;7.00;;;;;;;;;;4995618;28;20080;-83
2022/08/22 00:53:30;;;;;;;9.27;7.18;;;;;;;;;;4997300;28;20529;-82
2022/08/22 00:56:11;;;;;;;11.68;7.10;;;;;;;;;;4998098;28;20035;-82
2022/08/22 00:58:43;;;;;;;11.82;7.40;;;;;;;;;;4996031;28;20032;-82
2022/08/22 01:01:11;;;;;;;10.55;7.47;;;;;;;;;;4995762;28;20034;-82
2022/08/22 01:03:40;;;;;;;10.85;7.00;;;;;;;;;;4996571;28;20026;-81
2022/08/22 01:06:24;;;;;;;10.93;7.13;;;;;;;;;;4996953;28;20097;-81
2022/08/22 01:08:59;;;;;;;10.75;8.18;;;;;;;;;;4994392;28;20577;-80
2022/08/22 01:11:43;;;;;;;12.48;7.85;;;;;;;;;;4997724;28;20034;-82
2022/08/22 01:14:21;;;;;;;12.40;7.85;;;;;;;;;;4997115;28;20508;-81
2022/08/22 01:17:00;;;;;;;12.60;8.65;;;;;;;;;;4995255;28;20035;-80
2022/08/22 01:19:29;;;;;;;11.45;8.25;;;;;;;;;;4996094;28;20026;-80
2022/08/22 01:22:10;;;;;;;11.30;8.27;;;;;;;;;;4986325;28;20037;-81
2022/08/22 01:25:17;;;;;;;10.65;8.27;;;;;;;;;;4996189;28;20030;-80
2022/08/22 01:28:01;;;;;;;10.35;7.88;;;;;;;;;;4991392;28;20036;-81
2022/08/22 01:30:40;;;;;;;11.05;8.23;;;;;;;;;;5015561;28;20041;-80
2022/08/22 01:33:06;;;;;;;11.85;8.77;;;;;;;;;;5016337;28;20057;-81
2022/08/22 01:35:51;;;;;;;11.30;7.72;;;;;;;;;;4999503;28;20033;-81
2022/08/22 01:38:24;;;;;;;11.15;8.02;;;;;;;;;;5016453;28;20038;-81
2022/08/22 01:40:51;;;;;;;;;;;;;;;;;;4998679;28;20026;-81
2022/08/22 01:43:32;;;;;;;11.32;7.53;;;;;;;;;;5016227;28;19905;-81
2022/08/22 01:46:17;;;;;;;14.75;8.55;;;;;;;;;;5015986;28;20030;-81
2022/08/22 01:49:03;;;;;;;10.10;7.68;;;;;;;;;;5015643;28;20076;-82
2022/08/22 01:51:43;;;;;;;10.50;7.80;;;;;;;;;;5017375;28;20378;-82
2022/08/22 01:54:09;;;;;;;11.90;7.65;;;;;;;;;;5016359;28;20060;-82
2022/08/22 01:56:41;;;;;;;11.02;8.40;;;;;;;;;;5016041;28;20033;-82
2022/08/22 01:59:13;;;;;;;10.60;6.88;;;;;;;;;;4997904;28;20041;-82
2022/08/22 02:01:39;;;;;;;;;;;;;;;;;;5017463;28;20526;-83
2022/08/22 02:04:08;;;;;;;11.18;7.25;;;;;;;;;;4998897;28;19909;-82
2022/08/22 02:06:40;;;;;;;10.07;7.18;;;;;;;;;;4984701;28;20026;-83
2022/08/22 02:09:09;;;;;;;10.63;7.53;;;;;;;;;;5014927;28;20100;-80
2022/08/22 02:11:40;;;;;;;11.20;7.50;;;;;;;;;;5015568;28;20025;-82
2022/08/22 02:14:16;;;;;;;11.25;7.85;;;;;;;;;;5013375;28;20014;-83
2022/08/22 02:16:44;;;;;;;10.30;7.72;;;;;;;;;;5013412;28;20125;-83
2022/08/22 02:19:10;;;;;;;10.70;7.10;;;;;;;;;;4992517;28;20026;-80
2022/08/22 02:21:55;;;;;;;9.77;7.10;;;;;;;;;;5018238;28;20048;-82
2022/08/22 02:24:28;;;;;;;10.45;7.68;;;;;;;;;;5019539;28;20072;-80
2022/08/22 02:26:54;;;;;;;;;;;;;;;;;;5015385;28;20022;-81
2022/08/22 02:29:30;;;;;;;9.75;6.65;;;;;;;;;;5017545;28;20278;-81
2022/08/22 02:32:17;;;;;;;10.48;6.80;;;;;;;;;;5018121;28;20084;-81
2022/08/22 02:34:48;;;;;;;9.45;6.82;;;;;;;;;;5005864;28;20048;-81
2022/08/22 02:37:17;;;;;;;13.35;8.25;;;;;;;;;;5017205;28;20026;-82
2022/08/22 02:40:15;;;;;;;10.70;7.07;;;;;;;;;;5000799;28;20116;-82
2022/08/22 02:42:51;;;;;;;10.50;7.07;;;;;;;;;;4956558;28;20520;-82
2022/08/22 02:45:35;;;;;;;11.10;7.15;;;;;;;;;;5018969;28;20033;-81
2022/08/22 02:48:01;;;;;;;9.13;6.85;;;;;;;;;;5017741;28;20026;-83
2022/08/22 02:50:28;;;;;;;8.77;6.45;;;;;;;;;;5001607;28;20045;-82
2022/08/22 02:53:03;;;;;;;10.10;7.05;;;;;;;;;;5001401;28;20029;-82
2022/08/22 02:55:42;;;;;;;11.07;7.18;;;;;;;;;;5017820;28;20022;-81
2022/08/22 02:58:27;;;;;;;11.35;6.63;;;;;;;;;;5017878;28;20033;-81
2022/08/22 03:01:03;;;;;;;9.88;6.32;;;;;;;;;;5018131;28;20022;-82
2022/08/22 03:03:35;;;;;;;9.02;6.50;;;;;;;;;;5018566;28;20065;-82
2022/08/22 03:06:04;;;;;;;28.60;14.38;;;;;;;;;;5019403;28;20109;-82
2022/08/22 03:08:35;;;;;;;9.70;6.32;;;;;;;;;;5017667;28;20506;-82
2022/08/22 03:11:11;;;;;;;10.45;6.65;;;;;;;;;;5019016;28;20115;-82
2022/08/22 03:13:48;;;;;;;10.98;6.75;;;;;;;;;;5018219;28;20064;-82
2022/08/22 03:16:33;;;;;;;10.13;6.57;;;;;;;;;;5001927;28;20037;-83
2022/08/22 03:19:08;;;;;;;9.07;6.18;;;;;;;;;;5016326;28;20041;-82
2022/08/22 03:21:36;;;;;;;8.93;5.85;;;;;;;;;;5018566;28;20029;-82
2022/08/22 03:24:14;;;;;;;8.40;5.68;;;;;;;;;;5018658;28;20095;-83
2022/08/22 03:26:49;;;;;;;9.80;5.82;;;;;;;;;;5019063;28;20022;-82
2022/08/22 03:29:19;;;;;;;8.82;5.95;;;;;;;;;;4999288;28;20041;-83
2022/08/22 03:32:03;;;;;;;8.73;5.88;;;;;;;;;;5017961;28;20120;-82
2022/08/22 03:34:29;;;;;;;9.50;6.07;;;;;;;;;;4980856;28;20027;-82
2022/08/22 03:36:58;;;;;;;8.20;5.57;;;;;;;;;;4982344;28;20102;-81
2022/08/22 03:39:37;;;;;;;12.05;5.60;;;;;;;;;;5001819;28;20552;-83
2022/08/22 03:42:29;;;;;;;9.93;6.68;;;;;;;;;;5018035;28;20029;-82
2022/08/22 03:45:14;;;;;;;8.45;5.70;;;;;;;;;;5016073;28;20042;-83
2022/08/22 03:47:49;;;;;;;9.82;5.43;;;;;;;;;;5000377;28;20030;-83
2022/08/22 03:50:18;;;;;;;9.60;5.50;;;;;;;;;;5019439;28;20037;-83
2022/08/22 03:55:31;;;;;;;10.93;5.43;;;;;;;;;;5018784;28;20044;-83
2022/08/22 03:58:07;;;;;;;8.65;5.63;;;;;;;;;;5017022;28;20030;-82
2022/08/22 04:00:52;;;;;;;9.80;5.68;;;;;;;;;;4981409;28;20028;-82
2022/08/22 04:03:27;;;;;;;8.10;4.93;;;;;;;;;;5009905;28;20032;-83
2022/08/22 04:06:09;;;;;;;9.05;5.13;;;;;;;;;;5019048;28;20520;-82
2022/08/22 04:08:38;;;;;;;8.73;5.80;;;;;;;;;;5016379;28;20052;-81
2022/08/22 04:11:12;;;;;;;9.48;5.57;;;;;;;;;;5018265;28;20038;-81
2022/08/22 04:13:38;;;;;;;9.57;6.15;;;;;;;;;;5016879;28;20057;-82
2022/08/22 04:16:04;;;;;;;9.15;5.47;;;;;;;;;;5018197;28;20025;-82
2022/08/22 04:18:33;;;;;;;7.25;4.97;;;;;;;;;;5014775;28;20585;-82
2022/08/22 04:21:02;;;;;;;9.88;5.90;;;;;;;;;;5000050;28;20482;-82
2022/08/22 04:23:29;;;;;;;8.00;5.13;;;;;;;;;;5018193;28;20084;-81
2022/08/22 04:25:58;;;;;;;8.93;5.50;;;;;;;;;;5018201;28;20021;-82
2022/08/22 04:28:29;;;;;;;7.82;5.28;;;;;;;;;;5015188;28;20370;-81
2022/08/22 04:31:04;;;;;;;9.20;5.55;;;;;;;;;;5017532;28;20048;-81
2022/08/22 04:33:51;;;;;;;9.07;5.47;;;;;;;;;;4995612;28;20543;-82
2022/08/22 04:36:36;;;;;;;7.70;5.72;;;;;;;;;;5016511;28;20033;-81
2022/08/22 04:39:09;;;;;;;8.75;5.55;;;;;;;;;;5008562;28;20053;-81
2022/08/22 04:41:47;;;;;;;9.82;4.57;;;;;;;;;;5016953;28;20499;-81
2022/08/22 04:44:16;;;;;;;10.63;5.53;;;;;;;;;;5013124;28;20477;-82
2022/08/22 04:46:48;;;;;;;9.27;5.20;;;;;;;;;;5015780;28;20046;-83
2022/08/22 04:49:35;;;;;;;8.80;5.13;;;;;;;;;;5014422;28;20034;-81
2022/08/22 04:52:04;;;;;;;7.43;4.93;;;;;;;;;;5008704;28;20490;-81
2022/08/22 04:54:36;;;;;;;7.10;4.78;;;;;;;;;;5021527;28;20083;-81
2022/08/22 04:57:14;;;;;;;9.30;6.07;;;;;;;;;;5009633;28;20053;-82
2022/08/22 04:59:41;;;;;;;8.68;4.53;;;;;;;;;;5014794;28;20022;-81
2022/08/22 05:02:09;;;;;;;8.27;5.38;;;;;;;;;;5008338;28;20100;-81
2022/08/22 05:04:40;;;;;;;8.85;5.25;;;;;;;;;;5005091;28;20026;-83
2022/08/22 05:07:18;;;;;;;8.57;5.00;;;;;;;;;;5015792;28;20038;-82
2022/08/22 05:09:49;;;;;;;7.85;4.97;;;;;;;;;;5008446;28;20476;-81
2022/08/22 05:12:19;;;;;;;10.27;5.40;;;;;;;;;;5011750;28;20082;-81
2022/08/22 05:14:48;;;;;;;8.45;5.95;;;;;;;;;;5013153;28;20025;-81
2022/08/22 05:17:16;;;;;;;7.63;4.55;;;;;;;;;;5015575;28;20033;-80
2022/08/22 05:19:45;;;;;;;9.38;4.97;;;;;;;;;;5013162;28;20121;-81
2022/08/22 05:22:14;;;;;;;6.88;4.93;;;;;;;;;;5013771;28;20022;-80
2022/08/22 05:24:41;;;;;;;8.15;4.78;;;;;;;;;;5025133;28;20037;-80
2022/08/22 05:27:10;;;;;;;8.15;4.65;;;;;;;;;;5015886;28;20140;-80
2022/08/22 05:29:38;;;;;;;7.60;4.88;;;;;;;;;;5013505;28;20034;-80
2022/08/22 05:32:05;;;;;;;9.02;4.45;;;;;;;;;;5018875;28;20025;-80
2022/08/22 05:34:34;;;;;;;8.25;4.40;;;;;;;;;;4996649;28;20501;-81
2022/08/22 05:37:04;;;;;;;8.05;4.80;;;;;;;;;;5008158;28;20030;-80
2022/08/22 05:39:30;;;;;;;6.57;4.10;;;;;;;;;;5015869;28;20414;-81
2022/08/22 05:42:00;;;;;;;7.00;4.35;;;;;;;;;;5025378;28;20050;-78
2022/08/22 05:44:30;;;;;;;7.88;4.50;;;;;;;;;;5010341;28;20544;-80
2022/08/22 05:46:56;;;;;;;6.45;3.80;;;;;;;;;;4988492;28;20022;-79
2022/08/22 05:49:27;;;;;;;7.00;4.07;;;;;;;;;;5018899;28;20022;-80
2022/08/22 05:51:52;;;;;;;7.05;3.85;;;;;;;;;;5021108;28;20078;-81
2022/08/22 05:54:21;;;;;;;7.28;3.88;;;;;;;;;;5017521;28;20139;-81
2022/08/22 05:56:52;;;;;;;7.18;3.92;;;;;;;;;;5006843;28;20036;-80
2022/08/22 05:59:24;;;;;;;7.63;4.15;;;;;;;;;;4985957;28;20061;-81
2022/08/22 06:01:59;;;;;;;7.78;3.90;;;;;;;;;;5007526;28;20038;-81
2022/08/22 06:04:29;;;;;;;6.25;3.63;;;;;;;;;;5001454;28;20051;-81
2022/08/22 06:06:57;;;;;;;7.80;4.22;;;;;;;;;;5012959;28;20026;-81
2022/08/22 06:09:23;;;;;;;9.52;4.78;;;;;;;;;;5007866;28;20026;-80
2022/08/22 06:12:10;;;;;;;6.97;3.88;;;;;;;;;;5009580;28;20029;-80
2022/08/22 06:14:36;;;;;;;8.93;4.38;;;;;;;;;;5028225;28;20045;-82
2022/08/22 06:17:05;;;;;;;6.72;3.97;;;;;;;;;;5020568;28;20022;-81
2022/08/22 06:19:34;;;;;;;6.50;3.83;;;;;;;;;;5014840;28;20026;-81
2022/08/22 06:22:01;;;;;;;7.25;4.35;;;;;;;;;;5015032;28;20019;-81
2022/08/22 06:24:27;;;;;;;6.45;3.95;;;;;;;;;;5016597;28;20029;-81
2022/08/22 06:26:55;;;;;;;6.30;3.78;;;;;;;;;;4992422;28;20030;-81
2022/08/22 06:29:54;;;;;;;7.15;4.28;;;;;;;;;;4997691;28;20038;-80
2022/08/22 06:32:24;;;;;;;7.05;4.22;;;;;;;;;;4915429;29;20036;-81
2022/08/22 06:34:52;;;;;;;8.48;3.88;;;;;;;;;;4912292;29;20054;-80
2022/08/22 06:37:21;;;;;;;6.55;4.03;;;;;;;;;;4905122;29;20099;-80
2022/08/22 06:39:50;;;;;;;7.13;4.07;;;;;;;;;;4894035;29;20280;-79
2022/08/22 06:42:19;;;;;;;7.65;4.30;;;;;;;;;;4894246;29;20044;-80
2022/08/22 06:45:00;;;;;;;6.28;4.13;;;;;;;;;;4900866;29;20087;-79
2022/08/22 06:47:29;;;;;;;6.40;3.97;;;;;;;;;;4908577;29;20028;-81
2022/08/22 06:50:00;;;;;;;6.38;4.03;;;;;;;;;;4915165;29;20036;-81
2022/08/22 06:52:28;;;;;;;5.85;3.67;;;;;;;;;;4913211;29;20051;-80
2022/08/22 06:54:59;;;;;;;8.30;4.40;;;;;;;;;;4898070;29;20044;-79
2022/08/22 06:57:43;;;;;;;6.35;4.50;;;;;;;;;;4912817;29;20028;-80
2022/08/22 07:00:11;;;;;;;8.20;4.13;;;;;;;;;;4910590;29;20072;-80
2022/08/22 07:02:51;;;;;;;8.68;4.47;;;;;;;;;;4913718;29;20585;-80
2022/08/22 07:05:20;;;;;;;7.95;4.80;;;;;;;;;;4916537;29;20035;-80
2022/08/22 07:07:46;;;;;;;9.93;5.55;;;;;;;;;;4960566;28;20044;-80
2022/08/22 07:10:14;;;;;;;8.20;5.22;;;;;;;;;;4999892;28;20033;-79
2022/08/22 07:12:43;;;;;;;8.10;5.53;;;;;;;;;;4992959;28;20042;-80
2022/08/22 07:15:32;;;;;;;7.65;5.22;;;;;;;;;;5014213;28;20036;-80
2022/08/22 07:18:00;;;;;;;8.65;5.10;;;;;;;;;;5010633;28;20034;-80
2022/08/22 07:20:28;;;;;;;8.65;5.75;;;;;;;;;;4993403;28;20042;-81
2022/08/22 07:22:54;;;;;;;8.32;5.68;;;;;;;;;;4998707;28;20494;-81
2022/08/22 07:25:23;;;;;;;8.60;6.13;;;;;;;;;;5003463;28;20046;-81
2022/08/22 07:28:27;;;;;;;8.50;5.40;;;;;;;;;;5008503;28;20025;-81
2022/08/22 07:30:55;;;;;;;7.30;4.90;;;;;;;;;;4929582;29;20052;-84
2022/08/22 07:33:24;;;;;;;8.00;5.00;;;;;;;;;;4928952;29;20094;-81
2022/08/22 07:35:55;;;;;;;7.82;5.30;;;;;;;;;;4978146;28;20033;-82
2022/08/22 07:38:28;;;;;;;8.30;5.07;;;;;;;;;;4999334;28;20026;-81
2022/08/22 07:41:09;;;;;;;8.20;5.72;;;;;;;;;;5019467;28;20028;-81
2022/08/22 07:43:38;;;;;;;8.05;5.07;;;;;;;;;;5013096;28;20346;-81
2022/08/22 07:46:11;;;;;;;13.63;6.03;;;;;;;;;;5021267;28;20029;-81
2022/08/22 07:48:48;;;;;;;8.43;5.20;;;;;;;;;;5018901;28;20038;-81
2022/08/22 07:51:16;;;;;;;9.38;4.90;;;;;;;;;;4985643;28;20577;-81
2022/08/22 07:53:48;;;;;;;7.15;4.90;;;;;;;;;;5016755;28;20026;-81
2022/08/22 07:56:16;;;;;;;8.35;5.68;;;;;;;;;;4994129;28;20056;-82
2022/08/22 07:58:44;;;;;;;7.68;5.15;;;;;;;;;;4995610;28;20558;-82
2022/08/22 08:01:14;;;;;;;9.43;5.00;;;;;;;;;;5009497;28;20022;-81
2022/08/22 08:03:40;;;;;;;8.40;5.43;;;;;;;;;;4999309;28;20497;-81
2022/08/22 08:06:08;;;;;;;7.13;5.00;;;;;;;;;;5018643;28;20030;-82
2022/08/22 08:08:44;;;;;;;7.43;4.75;;;;;;;;;;5019255;28;20018;-81
2022/08/22 08:11:12;;;;;;;7.70;4.53;;;;;;;;;;5019473;28;20037;-81
2022/08/22 08:13:43;;;;;;;8.05;4.68;;;;;;;;;;5013333;28;20026;-81
2022/08/22 08:16:15;;;;;;;6.68;4.35;;;;;;;;;;5006297;28;20528;-82
2022/08/22 08:18:42;;;;;;;7.83;4.80;;;;;;;;;;5019375;28;20033;-81
2022/08/22 08:21:09;;;;;;;5.80;3.72;;;;;;;;;;5016756;28;20053;-82
2022/08/22 08:23:41;;;;;;;7.20;4.35;;;;;;;;;;5018596;28;20029;-81
2022/08/22 08:26:14;;;;;;;6.80;4.55;;;;;;;;;;5004791;28;20022;-81
2022/08/22 08:28:43;;;;;;;6.90;4.13;;;;;;;;;;4992159;28;20541;-82
2022/08/22 08:31:12;;;;;;;7.35;4.18;;;;;;;;;;5018732;28;20029;-81
2022/08/22 08:33:42;;;;;;;8.15;4.38;;;;;;;;;;5020691;28;20081;-81
2022/08/22 08:36:10;;;;;;;6.90;4.07;;;;;;;;;;5000943;28;20482;-82
2022/08/22 08:38:42;;;;;;;6.32;3.60;;;;;;;;;;5001993;28;20054;-82
2022/08/22 08:41:11;;;;;;;5.65;4.03;;;;;;;;;;5004219;28;20500;-81
2022/08/22 08:43:40;;;;;;;7.78;4.43;;;;;;;;;;5017833;28;20029;-80
2022/08/22 08:46:06;;;;;;;6.38;3.70;;;;;;;;;;4997992;28;20420;-81
2022/08/22 08:48:52;;;;;;;5.65;3.40;;;;;;;;;;5019579;28;20026;-81
2022/08/22 08:51:39;;;;;;;5.20;3.28;;;;;;;;;;5018129;28;20050;-81
2022/08/22 08:54:25;;;;;;;5.18;3.20;;;;;;;;;;5001646;28;20085;-82
2022/08/22 08:57:06;;;;;;;5.35;2.97;;;;;;;;;;4999331;28;20060;-82
2022/08/22 08:59:52;;;;;;;4.93;2.63;;;;;;;;;;5009246;28;20057;-81
2022/08/22 09:02:38;;;;;;;5.82;3.20;;;;;;;;;;5017125;28;20113;-81
2022/08/22 09:05:28;;;;;;;5.07;2.70;;;;;;;;;;5018347;28;20057;-81
2022/08/22 09:08:01;;;;;;;6.00;3.63;;;;;;;;;;5009779;28;20040;-81
2022/08/22 09:10:46;;;;;;;4.57;2.25;;;;;;;;;;5015458;28;20418;-82
2022/08/22 09:13:22;;;;;;;4.82;2.25;;;;;;;;;;5018734;28;20026;-80
2022/08/22 09:16:03;;;;;;;5.15;2.33;;;;;;;;;;5016462;28;20053;-81
2022/08/22 09:18:29;;;;;;;4.40;2.53;;;;;;;;;;5016077;28;20026;-81
2022/08/22 09:21:15;;;;;;;5.10;2.50;;;;;;;;;;5015887;28;20018;-81
2022/08/22 09:23:44;;;;;;;4.38;2.38;;;;;;;;;;5012831;28;20046;-82
2022/08/22 09:26:18;;;;;;;5.07;2.67;;;;;;;;;;5015833;28;20096;-81
2022/08/22 09:28:53;;;;;;;4.53;2.25;;;;;;;;;;5015052;28;20075;-81
2022/08/22 09:31:28;;;;;;;4.82;2.38;;;;;;;;;;5017680;28;20075;-82
2022/08/22 09:34:12;;;;;;;4.78;2.63;;;;;;;;;;5016678;28;20303;-83
2022/08/22 09:36:57;;;;;;;6.03;2.40;;;;;;;;;;5016259;28;20030;-82
2022/08/22 09:39:41;;;;;;;4.80;2.45;;;;;;;;;;5000419;28;20307;-82
2022/08/22 09:42:07;;;;;;;6.18;2.40;;;;;;;;;;5017804;28;20036;-82
2022/08/22 09:44:45;;;;;;;3.92;2.00;;;;;;;;;;5006480;28;20006;-82
2022/08/22 09:47:30;;;;;;;4.38;2.30;;;;;;;;;;5017139;28;20333;-82
2022/08/22 09:50:15;;;;;;;4.60;2.08;;;;;;;;;;5015835;28;20342;-83
2022/08/22 09:53:00;;;;;;;5.97;2.58;;;;;;;;;;5014499;28;20029;-84
2022/08/22 09:55:30;;;;;;;6.63;2.90;;;;;;;;;;5016359;28;20202;-83
2022/08/22 09:58:03;;;;;;;4.32;2.28;;;;;;;;;;5016457;28;20026;-84
2022/08/22 10:00:50;;;;;;;4.10;2.13;;;;;;;;;;5001003;28;20493;-83
2022/08/22 10:03:19;;;;;;;4.10;2.10;;;;;;;;;;5016964;28;20077;-85
2022/08/22 10:05:47;;;;;;;4.22;2.13;;;;;;;;;;4999250;28;20516;-84
2022/08/22 10:08:15;;;;;;;3.55;1.80;;;;;;;;;;4996917;28;20045;-84
2022/08/22 10:11:05;;;;;;;4.43;1.80;;;;;;;;;;4980246;28;20030;-85
2022/08/22 10:13:37;;;;;;;3.97;1.75;;;;;;;;;;4988228;28;20121;-84
2022/08/22 10:16:21;;;;;;;3.63;1.60;;;;;;;;;;4999855;28;20033;-84
2022/08/22 10:19:06;;;;;;;3.38;1.23;;;;;;;;;;4984053;28;20030;-85
2022/08/22 10:21:51;;;;;;;3.45;1.50;;;;;;;;;;5013730;28;20045;-85
2022/08/22 10:24:36;;;;;;;3.58;1.50;;;;;;;;;;4997683;28;20425;-84
2022/08/22 10:27:06;;;;;;;3.60;1.45;;;;;;;;;;4999439;28;20037;-85
2022/08/22 10:29:38;;;;;;;3.80;1.40;;;;;;;;;;4995001;28;20026;-85
2022/08/22 10:32:24;;;;;;;3.20;1.23;;;;;;;;;;4983853;28;20056;-84
2022/08/22 10:34:54;;;;;;;2.80;1.10;;;;;;;;;;5015533;28;20046;-85
2022/08/22 10:37:29;;;;;;;3.17;1.20;;;;;;;;;;4994352;28;20030;-85
2022/08/22 10:40:00;;;;;;;3.22;1.30;;;;;;;;;;4981053;28;20054;-86
2022/08/22 10:42:27;;;;;;;2.90;1.20;;;;;;;;;;4988507;28;20022;-85
2022/08/22 10:45:17;;;;;;;3.28;1.25;;;;;;;;;;5002563;28;20044;-85
2022/08/22 10:47:52;;;;;;;2.65;1.13;;;;;;;;;;4994529;28;20026;-85
2022/08/22 10:50:23;;;;;;;3.60;1.20;;;;;;;;;;5000088;28;20034;-85
2022/08/22 10:53:28;;;;;;;3.13;1.30;;;;;;;;;;5002798;28;20053;-85
2022/08/22 10:55:41;;;;;;;5.05;1.40;;;;;;;;;;5016071;28;20034;-85
2022/08/22 10:58:12;;;;;;;3.03;1.15;;;;;;;;;;5019931;28;20072;-85
2022/08/22 11:00:44;;;;;;;3.05;1.23;;;;;;;;;;5003738;28;20029;-84
2022/08/22 11:03:10;;;;;;;2.97;1.10;;;;;;;;;;5006740;28;20033;-85
2022/08/22 11:05:40;;;;;;;3.22;1.30;;;;;;;;;;5000087;28;20018;-85
2022/08/22 11:08:08;;;;;;;2.75;0.90;;;;;;;;;;5021347;28;20036;-85
2022/08/22 11:10:41;;;;;;;2.55;1.05;;;;;;;;;;5008213;28;20453;-84
2022/08/22 11:13:07;;;;;;;2.67;1.00;;;;;;;;;;5002110;28;20030;-84
2022/08/22 11:15:45;;;;;;;2.83;1.13;;;;;;;;;;5001873;28;20030;-85
2022/08/22 11:18:12;;;;;;;1.92;0.85;;;;;;;;;;5018792;28;20054;-82
2022/08/22 11:20:38;;;;;;;2.50;0.98;;;;;;;;;;4997865;28;20140;-81
2022/08/22 11:23:11;;;;;;;3.45;1.13;;;;;;;;;;5017929;28;20482;-84
2022/08/22 11:25:50;;;;;;;4.03;1.50;;;;;;;;;;5017206;28;20026;-84
2022/08/22 11:28:29;;;;;;;2.70;0.90;;;;;;;;;;5001390;28;20037;-82
2022/08/22 11:31:04;;;;;;;1.98;0.70;;;;;;;;;;5019683;28;20038;-84
2022/08/22 11:33:48;;;;;;;2.78;1.05;;;;;;;;;;5018402;28;20548;-83
2022/08/22 11:36:17;;;;;;;3.70;1.10;;;;;;;;;;5019044;28;20021;-84
2022/08/22 11:39:02;;;;;;;2.22;0.80;;;;;;;;;;5019657;28;20105;-86
2022/08/22 11:41:45;;;;;;;2.55;1.10;;;;;;;;;;5002666;28;20026;-83
2022/08/22 11:44:15;;;;;;;2.58;0.98;;;;;;;;;;4999480;28;20029;-83
2022/08/22 11:46:46;;;;;;;2.90;1.00;;;;;;;;;;5016897;28;20485;-83
2022/08/22 11:49:15;;;;;;;2.97;1.05;;;;;;;;;;5016839;28;20141;-83
2022/08/22 11:51:59;;;;;;;2.72;1.17;;;;;;;;;;5017838;28;20033;-82
2022/08/22 11:54:31;;;;;;;2.95;1.10;;;;;;;;;;5011211;28;20026;-82
2022/08/22 11:57:27;;;;;;;2.43;1.00;;;;;;;;;;5018012;28;20030;-81
2022/08/22 11:59:56;;;;;;;3.33;1.25;;;;;;;;;;4978091;28;20309;-81
2022/08/22 12:02:48;;;;;;;3.50;1.30;;;;;;;;;;4997798;28;20054;-81
2022/08/22 12:05:22;;;;;;;3.50;1.45;;;;;;;;;;4943875;29;20519;-80
2022/08/22 12:08:08;;;;;;;3.15;1.30;;;;;;;;;;4940021;29;20058;-80
2022/08/22 12:10:37;;;;;;;2.70;1.10;;;;;;;;;;4937987;29;20031;-81
2022/08/22 12:13:08;;;;;;;3.45;1.23;;;;;;;;;;4943101;29;20059;-80
2022/08/22 12:15:34;;;;;;;2.47;1.10;;;;;;;;;;4924060;29;20043;-81
2022/08/22 12:18:06;;;;;;;2.28;0.88;;;;;;;;;;4938184;29;20056;-80
2022/08/22 12:20:32;;;;;;;3.20;1.20;;;;;;;;;;4937461;29;20074;-81
2022/08/22 12:22:59;;;;;;;4.30;1.20;;;;;;;;;;4948416;29;20299;-80
2022/08/22 12:25:25;;;;;;;3.08;1.20;;;;;;;;;;4936970;29;20028;-80
2022/08/22 12:27:54;;;;;;;3.92;1.30;;;;;;;;;;4937182;29;20046;-80
2022/08/22 12:30:24;;;;;;;3.30;1.50;;;;;;;;;;4947036;29;20051;-80
2022/08/22 12:33:09;;;;;;;3.20;1.30;;;;;;;;;;4930508;29;20059;-80
2022/08/22 12:36:01;;;;;;;3.30;1.40;;;;;;;;;;4930490;29;20087;-78
2022/08/22 12:38:46;;;;;;;3.15;1.33;;;;;;;;;;4932352;29;20527;-79
2022/08/22 12:41:21;;;;;;;3.97;1.20;;;;;;;;;;4944667;28;20499;-78
2022/08/22 12:44:03;;;;;;;2.92;1.20;;;;;;;;;;4994098;28;20080;-79
2022/08/22 12:46:48;;;;;;;3.42;1.40;;;;;;;;;;5009229;28;20025;-79
2022/08/22 12:49:35;;;;;;;2.90;1.17;;;;;;;;;;5013939;28;20041;-80
2022/08/22 12:52:23;;;;;;;3.92;1.70;;;;;;;;;;5015971;28;20030;-80
2022/08/22 12:55:08;;;;;;;3.20;1.35;;;;;;;;;;5015466;28;20022;-80
2022/08/22 12:57:34;;;;;;;3.20;1.23;;;;;;;;;;5015738;28;20041;-80
2022/08/22 13:00:08;;;;;;;3.08;1.30;;;;;;;;;;5013616;28;20064;-80
2022/08/22 13:02:34;;;;;;;3.05;1.30;;;;;;;;;;4986981;28;20453;-80
2022/08/22 13:05:29;;;;;;;3.15;1.30;;;;;;;;;;5011091;28;20022;-80
2022/08/22 13:07:59;;;;;;;2.88;1.10;;;;;;;;;;4915277;29;20108;-80
2022/08/22 13:10:29;;;;;;;3.30;1.02;;;;;;;;;;4917426;29;20115;-79
2022/08/22 13:12:56;;;;;;;2.92;1.17;;;;;;;;;;4918619;29;20043;-79
2022/08/22 13:15:25;;;;;;;4.43;1.30;;;;;;;;;;4917317;29;20035;-80
2022/08/22 13:17:51;;;;;;;2.63;1.00;;;;;;;;;;4916782;29;20131;-79
2022/08/22 13:20:27;;;;;;;3.67;1.20;;;;;;;;;;4917335;29;20043;-80
2022/08/22 13:22:54;;;;;;;2.90;1.02;;;;;;;;;;4917352;29;20095;-79
2022/08/22 13:25:20;;;;;;;4.47;1.80;;;;;;;;;;4916869;29;20047;-79
2022/08/22 13:27:51;;;;;;;3.17;1.10;;;;;;;;;;4915428;29;20036;-78
2022/08/22 13:30:40;;;;;;;2.60;0.95;;;;;;;;;;4916987;29;20115;-80
2022/08/22 13:33:09;;;;;;;2.65;0.98;;;;;;;;;;4906302;29;20060;-78
2022/08/22 13:35:47;;;;;;;3.72;1.02;;;;;;;;;;4899735;29;20405;-78
2022/08/22 13:38:17;;;;;;;2.10;0.90;;;;;;;;;;4897282;29;20040;-78
2022/08/22 13:40:45;;;;;;;2.13;0.85;;;;;;;;;;4907671;29;20039;-78
2022/08/22 13:43:12;;;;;;;2.50;0.75;;;;;;;;;;4916778;28;20115;-79
2022/08/22 13:45:40;;;;;;;6.00;2.88;;;;;;;;;;4996603;28;20029;-80
2022/08/22 13:48:08;;;;;;;1.95;0.70;;;;;;;;;;5014454;28;20084;-79
2022/08/22 13:50:36;;;;;;;1.92;0.65;;;;;;;;;;5014331;28;20493;-78
2022/08/22 13:53:04;;;;;;;3.13;0.98;;;;;;;;;;4995934;28;20105;-78
2022/08/22 13:55:30;;;;;;;1.85;0.52;;;;;;;;;;5013669;28;20050;-79
2022/08/22 13:58:01;;;;;;;1.75;0.73;;;;;;;;;;5013803;28;20072;-80
2022/08/22 14:00:28;;;;;;;2.67;0.80;;;;;;;;;;4995479;28;20026;-79
2022/08/22 14:03:03;;;;;;;1.98;0.90;;;;;;;;;;5001854;28;20101;-79
2022/08/22 14:05:32;;;;;;;2.42;0.60;;;;;;;;;;5016002;28;20029;-79
2022/08/22 14:07:58;;;;;;;2.28;0.80;;;;;;;;;;5014323;28;20030;-79
2022/08/22 14:10:28;;;;;;;2.35;0.93;;;;;;;;;;4998043;28;20041;-80
2022/08/22 14:12:57;;;;;;;1.95;0.80;;;;;;;;;;5014682;28;20017;-79
2022/08/22 14:15:28;;;;;;;2.42;0.60;;;;;;;;;;5013398;28;20030;-79
2022/08/22 14:17:57;;;;;;;2.20;0.80;;;;;;;;;;5014328;28;20022;-80
2022/08/22 14:20:25;;;;;;;2.92;0.88;;;;;;;;;;5015002;28;20080;-79
2022/08/22 14:23:11;;;;;;;2.53;0.70;;;;;;;;;;5014964;28;20393;-79
2022/08/22 14:25:38;;;;;;;9.77;1.77;;;;;;;;;;5014211;28;20036;-80
2022/08/22 14:28:07;;;;;;;2.50;0.93;;;;;;;;;;5014969;28;20034;-79
2022/08/22 14:30:53;;;;;;;2.75;0.75;;;;;;;;;;4997723;28;20140;-79
2022/08/22 14:33:21;;;;;;;2.53;0.70;;;;;;;;;;4991162;28;20046;-79
2022/08/22 14:35:49;;;;;;;2.38;0.70;;;;;;;;;;5013831;28;20061;-79
2022/08/22 14:38:15;;;;;;;1.58;0.70;;;;;;;;;;5014607;28;20113;-80
2022/08/22 14:40:41;;;;;;;2.28;0.70;;;;;;;;;;5014059;28;20033;-79
2022/08/22 14:43:15;;;;;;;2.30;0.60;;;;;;;;;;5013368;28;20240;-80
2022/08/22 14:45:44;;;;;;;2.95;0.80;;;;;;;;;;4995244;28;20030;-80
2022/08/22 14:48:16;;;;;;;1.73;0.70;;;;;;;;;;4995476;28;20028;-81
2022/08/22 14:50:42;;;;;;;3.13;0.90;;;;;;;;;;4982200;28;20046;-82
2022/08/22 14:53:28;;;;;;;2.28;0.90;;;;;;;;;;4998244;28;20030;-78
2022/08/22 14:55:54;;;;;;;1.95;0.80;;;;;;;;;;5001180;28;20026;-80
2022/08/22 14:58:21;;;;;;;2.25;0.70;;;;;;;;;;5014869;28;20053;-82
2022/08/22 15:00:48;;;;;;;1.42;0.55;;;;;;;;;;5004469;28;20030;-82
2022/08/22 15:03:41;;;;;;;2.50;0.60;;;;;;;;;;4981473;28;20106;-80
2022/08/22 15:06:15;;;;;;;3.77;1.00;;;;;;;;;;5013570;28;20042;-81
2022/08/22 15:08:46;;;;;;;2.42;0.90;;;;;;;;;;5020895;28;20088;-82
2022/08/22 15:11:12;;;;;;;2.90;1.00;;;;;;;;;;5001936;28;20026;-80
2022/08/22 15:13:42;;;;;;;2.10;0.90;;;;;;;;;;5014426;28;20030;-82
2022/08/22 15:16:19;;;;;;;1.90;0.73;;;;;;;;;;5016080;28;20018;-79
2022/08/22 15:18:45;;;;;;;2.70;0.90;;;;;;;;;;5013482;28;20496;-79
2022/08/22 15:21:18;;;;;;;2.20;0.95;;;;;;;;;;4999552;28;20018;-80
2022/08/22 15:23:44;;;;;;;1.67;0.70;;;;;;;;;;4998695;28;20025;-79